createdAt,value
2016-06-06T08:40:09.761Z,24.75
2016-06-06T08:41:09.764Z,24.9
2016-06-06T08:42:09.767Z,24.77
2016-06-06T08:43:09.770Z,24.78
2016-06-06T08:44:09.960Z,24.75
2016-06-06T08:45:09.666Z,24.69
2016-06-06T08:46:09.808Z,24.7
2016-06-06T08:47:09.827Z,24.67
2016-06-06T08:48:09.674Z,24.64
2016-06-06T08:49:09.833Z,24.54
2016-06-06T08:50:09.851Z,24.67
2016-06-06T08:51:09.869Z,24.75
2016-06-06T08:52:09.872Z,24.78
2016-06-06T08:53:09.890Z,24.69
2016-06-06T08:54:09.893Z,24.71
2016-06-06T08:55:09.896Z,24.59
2016-06-06T08:56:09.898Z,24.7
2016-06-06T08:57:09.917Z,24.75
2016-06-06T08:58:09.919Z,24.78
2016-06-06T08:59:09.938Z,24.86
2016-06-06T09:00:10.440Z,24.85
2016-06-06T09:01:09.974Z,24.89
2016-06-06T09:02:09.977Z,24.9
2016-06-06T09:03:09.995Z,24.89
2016-06-06T09:04:09.982Z,24.86
2016-06-06T09:05:10.017Z,24.83
2016-06-06T09:06:10.003Z,24.82
2016-06-06T09:07:10.022Z,24.75
2016-06-06T09:08:10.024Z,24.8
2016-06-06T09:09:10.043Z,24.82
2016-06-06T09:10:10.061Z,24.78
2016-06-06T09:11:10.064Z,24.78
2016-06-06T09:12:10.067Z,24.78
2016-06-06T09:13:10.085Z,24.8
2016-06-06T09:14:10.150Z,24.75
2016-06-06T09:15:10.090Z,24.85
2016-06-06T09:16:10.108Z,24.77
2016-06-06T09:17:10.127Z,24.75
2016-06-06T09:18:10.130Z,24.86
2016-06-06T09:19:10.147Z,24.87
2016-06-06T09:20:10.166Z,24.89
2016-06-06T09:21:10.185Z,24.85
2016-06-06T09:22:10.171Z,24.74
2016-06-06T09:23:10.190Z,24.74
2016-06-06T09:24:10.193Z,24.75
2016-06-06T09:25:10.195Z,24.69
2016-06-06T09:26:10.229Z,24.71
2016-06-06T09:27:10.216Z,24.69
2016-06-06T09:28:10.235Z,24.67
2016-06-06T09:29:11.159Z,24.71
2016-06-06T09:30:10.099Z,24.74
2016-06-06T09:31:10.258Z,24.75
2016-06-06T09:32:10.276Z,24.74
2016-06-06T09:33:10.279Z,24.71
2016-06-06T09:34:10.298Z,24.75
2016-06-06T09:35:10.301Z,24.82
2016-06-06T09:36:10.318Z,24.78
2016-06-06T09:37:10.321Z,24.89
2016-06-06T09:38:10.339Z,24.92
2016-06-06T09:39:10.342Z,24.83
2016-06-06T09:40:10.345Z,24.83
2016-06-06T09:41:10.364Z,24.87
2016-06-06T09:42:10.381Z,24.83
2016-06-06T09:43:10.384Z,24.97
2016-06-06T09:44:11.402Z,24.9
2016-06-06T09:45:10.250Z,25.12
2016-06-06T09:46:10.408Z,25.12
2016-06-06T09:47:10.427Z,25.14
2016-06-06T09:48:10.429Z,25.15
2016-06-06T09:49:10.291Z,25.08
2016-06-06T09:50:10.449Z,24.92
2016-06-06T09:51:10.468Z,24.86
2016-06-06T09:52:10.471Z,24.83
2016-06-06T09:53:10.489Z,24.93
2016-06-06T09:54:10.508Z,24.89
2016-06-06T09:55:10.541Z,25.11
2016-06-06T09:56:10.513Z,25.08
2016-06-06T09:57:10.532Z,25.08
2016-06-06T09:58:10.534Z,24.97
2016-06-06T09:59:10.755Z,25.04
2016-06-06T10:00:10.555Z,24.96
2016-06-06T10:01:10.574Z,24.93
2016-06-06T10:02:10.420Z,24.92
2016-06-06T10:03:10.595Z,24.9
2016-06-06T10:04:10.597Z,25.12
2016-06-06T10:05:10.600Z,25.07
2016-06-06T10:06:10.618Z,25.05
2016-06-06T10:07:10.621Z,25.05
2016-06-06T10:08:10.639Z,25.05
2016-06-06T10:09:10.642Z,24.97
2016-06-06T10:10:10.659Z,25.02
2016-06-06T10:11:10.663Z,25
2016-06-06T10:12:10.525Z,25.05
2016-06-06T10:13:10.683Z,25.05
2016-06-06T10:14:10.734Z,25.12
2016-06-06T10:15:10.705Z,25.17
2016-06-06T10:16:10.708Z,25.19
2016-06-06T10:17:10.725Z,25.23
2016-06-06T10:18:10.572Z,25.19
2016-06-06T10:19:10.763Z,25.19
2016-06-06T10:20:10.766Z,25.2
2016-06-06T10:21:10.768Z,25.34
2016-06-06T10:22:10.786Z,25.3
2016-06-06T10:23:10.789Z,25.32
2016-06-06T10:24:10.807Z,25.37
2016-06-06T10:25:10.810Z,25.39
2016-06-06T10:26:10.828Z,25.17
2016-06-06T10:27:10.830Z,25.22
2016-06-06T10:28:10.848Z,25.26
2016-06-06T10:29:11.602Z,25.29
2016-06-06T10:30:11.026Z,25.27
2016-06-06T10:31:10.873Z,25.3
2016-06-06T10:32:10.875Z,25.37
2016-06-06T10:33:10.737Z,25.44
2016-06-06T10:34:10.896Z,25.48
2016-06-06T10:35:10.915Z,25.54
2016-06-06T10:36:10.917Z,25.52
2016-06-06T10:37:10.936Z,25.63
2016-06-06T10:38:10.938Z,25.52
2016-06-06T10:39:10.957Z,25.66
2016-06-06T10:40:10.959Z,25.66
2016-06-06T10:41:10.978Z,25.76
2016-06-06T10:42:10.980Z,25.79
2016-06-06T10:43:10.998Z,25.76
2016-06-06T10:44:11.017Z,25.79
2016-06-06T10:45:10.864Z,25.84
2016-06-06T10:46:11.022Z,25.85
2016-06-06T10:47:11.025Z,25.96
2016-06-06T10:48:11.044Z,25.91
2016-06-06T10:49:11.061Z,25.88
2016-06-06T10:50:11.064Z,25.84
2016-06-06T10:51:11.083Z,25.84
2016-06-06T10:52:11.383Z,25.93
2016-06-06T10:53:11.104Z,25.93
2016-06-06T10:54:11.107Z,25.85
2016-06-06T10:55:11.125Z,25.84
2016-06-06T10:56:11.127Z,25.91
2016-06-06T10:57:10.990Z,25.76
2016-06-06T10:58:11.148Z,25.85
2016-06-06T10:59:11.166Z,25.91
2016-06-06T11:00:11.466Z,25.91
2016-06-06T11:01:11.204Z,25.91
2016-06-06T11:02:11.206Z,26.06
2016-06-06T11:03:11.209Z,25.99
2016-06-06T11:04:11.212Z,26.06
2016-06-06T11:05:11.215Z,26.11
2016-06-06T11:06:11.233Z,26.09
2016-06-06T11:07:11.251Z,26.07
2016-06-06T11:08:11.269Z,26.11
2016-06-06T11:09:11.631Z,26.09
2016-06-06T11:10:11.634Z,26.11
2016-06-06T11:11:11.293Z,26.15
2016-06-06T11:12:11.311Z,26.15
2016-06-06T11:13:11.517Z,26.2
2016-06-06T11:14:11.473Z,26.22
2016-06-06T11:15:11.381Z,26.19
2016-06-06T11:16:11.353Z,26.2
2016-06-06T11:17:11.464Z,26.09
2016-06-06T11:18:11.422Z,26.24
2016-06-06T11:19:11.377Z,26.2
2016-06-06T11:20:11.395Z,26.19
2016-06-06T11:21:11.648Z,26.23
2016-06-06T11:22:11.400Z,26.26
2016-06-06T11:23:11.591Z,26.32
2016-06-06T11:24:11.422Z,26.37
2016-06-06T11:25:11.690Z,26.37
2016-06-06T11:26:11.802Z,26.24
2016-06-06T11:27:11.461Z,26.34
2016-06-06T11:28:11.932Z,26.34
2016-06-06T11:29:11.513Z,26.31
2016-06-06T11:30:12.110Z,26.27
2016-06-06T11:31:11.518Z,26.34
2016-06-06T11:32:11.677Z,26.39
2016-06-06T11:33:11.540Z,26.38
2016-06-06T11:34:11.557Z,26.38
2016-06-06T11:35:11.607Z,26.41
2016-06-06T11:36:11.766Z,26.34
2016-06-06T11:37:11.582Z,26.49
2016-06-06T11:38:11.646Z,26.39
2016-06-06T11:39:11.618Z,26.35
2016-06-06T11:40:11.603Z,26.39
2016-06-06T11:41:11.667Z,26.34
2016-06-06T11:42:11.639Z,26.38
2016-06-06T11:43:11.751Z,26.38
2016-06-06T11:44:11.707Z,26.41
2016-06-06T11:45:12.306Z,26.37
2016-06-06T11:46:11.665Z,26.41
2016-06-06T11:47:11.731Z,26.37
2016-06-06T11:48:11.702Z,26.2
2016-06-06T11:49:11.548Z,26.24
2016-06-06T11:50:11.708Z,26.32
2016-06-06T11:51:11.726Z,26.3
2016-06-06T11:52:11.744Z,26.2
2016-06-06T11:53:11.997Z,26.26
2016-06-06T11:54:12.109Z,26.3
2016-06-06T11:55:11.768Z,26.37
2016-06-06T11:56:11.786Z,26.26
2016-06-06T11:57:11.805Z,26.24
2016-06-06T11:58:11.869Z,26.3
2016-06-06T11:59:11.669Z,26.23
2016-06-06T12:00:12.484Z,26.24
2016-06-06T12:01:11.831Z,26.27
2016-06-06T12:02:11.990Z,26.34
2016-06-06T12:03:11.851Z,26.37
2016-06-06T12:04:12.058Z,26.27
2016-06-06T12:05:11.889Z,26.38
2016-06-06T12:06:11.891Z,26.35
2016-06-06T12:07:12.003Z,26.39
2016-06-06T12:08:11.913Z,26.38
2016-06-06T12:09:12.087Z,26.44
2016-06-06T12:10:12.026Z,26.47
2016-06-06T12:11:11.952Z,26.45
2016-06-06T12:12:26.113Z,26.53
2016-06-06T12:13:11.973Z,26.44
2016-06-06T12:14:11.866Z,26.57
2016-06-06T12:15:26.153Z,26.5
2016-06-06T12:16:11.996Z,26.44
2016-06-06T12:17:12.203Z,26.52
2016-06-06T12:18:12.158Z,26.54
2016-06-06T12:19:12.020Z,26.39
2016-06-06T12:20:12.039Z,26.44
2016-06-06T12:21:26.216Z,26.38
2016-06-06T12:22:12.075Z,26.39
2016-06-06T12:23:12.187Z,26.44
2016-06-06T12:24:12.299Z,26.6
2016-06-06T12:25:12.114Z,26.6
2016-06-06T12:26:12.101Z,26.63
2016-06-06T12:27:12.322Z,26.71
2016-06-06T12:28:12.122Z,26.78
2016-06-06T12:29:12.218Z,26.72
2016-06-06T12:30:12.330Z,26.75
2016-06-06T12:31:26.321Z,26.74
2016-06-06T12:32:12.368Z,26.72
2016-06-06T12:33:12.183Z,26.71
2016-06-06T12:34:12.201Z,26.71
2016-06-06T12:35:12.312Z,26.72
2016-06-06T12:36:12.222Z,26.81
2016-06-06T12:37:12.271Z,26.82
2016-06-06T12:38:12.227Z,26.86
2016-06-06T12:39:12.089Z,26.86
2016-06-06T12:40:12.264Z,26.93
2016-06-06T12:41:12.267Z,26.82
2016-06-06T12:42:12.285Z,26.84
2016-06-06T12:43:12.287Z,26.9
2016-06-06T12:44:12.322Z,26.86
2016-06-06T12:45:12.715Z,27.01
2016-06-06T12:46:12.389Z,26.84
2016-06-06T12:47:12.329Z,26.93
2016-06-06T12:48:12.348Z,26.81
2016-06-06T12:49:12.367Z,26.86
2016-06-06T12:50:12.369Z,26.78
2016-06-06T12:51:12.387Z,26.86
2016-06-06T12:52:12.406Z,26.89
2016-06-06T12:53:12.408Z,26.94
2016-06-06T12:54:12.411Z,26.94
2016-06-06T12:55:12.430Z,26.93
2016-06-06T12:56:12.448Z,26.94
2016-06-06T12:57:12.450Z,26.91
2016-06-06T12:58:12.468Z,26.84
2016-06-06T12:59:12.330Z,26.78
2016-06-06T13:00:12.521Z,26.82
2016-06-06T13:01:12.492Z,26.82
2016-06-06T13:02:12.495Z,26.71
2016-06-06T13:03:12.529Z,26.82
2016-06-06T13:04:12.516Z,26.76
2016-06-06T13:05:12.549Z,26.82
2016-06-06T13:06:12.538Z,26.86
2016-06-06T13:07:12.555Z,26.76
2016-06-06T13:08:12.557Z,26.75
2016-06-06T13:09:12.577Z,26.76
2016-06-06T13:10:12.579Z,26.81
2016-06-06T13:11:12.598Z,26.78
2016-06-06T13:12:12.615Z,26.81
2016-06-06T13:13:12.618Z,26.79
2016-06-06T13:14:14.277Z,26.93
2016-06-06T13:15:13.140Z,26.9
2016-06-06T13:16:12.642Z,26.96
2016-06-06T13:17:12.660Z,26.97
2016-06-06T13:18:12.678Z,27.11
2016-06-06T13:19:12.697Z,27.08
2016-06-06T13:20:12.684Z,27
2016-06-06T13:21:12.734Z,26.81
2016-06-06T13:22:12.564Z,26.82
2016-06-06T13:23:12.739Z,26.89
2016-06-06T13:24:12.742Z,26.96
2016-06-06T13:25:12.744Z,26.96
2016-06-06T13:26:12.606Z,26.87
2016-06-06T13:27:12.781Z,26.81
2016-06-06T13:28:12.783Z,26.96
2016-06-06T13:29:12.958Z,26.94
2016-06-06T13:30:12.836Z,26.96
2016-06-06T13:31:12.822Z,26.96
2016-06-06T13:32:12.825Z,26.96
2016-06-06T13:33:12.688Z,27
2016-06-06T13:34:12.846Z,26.93
2016-06-06T13:35:12.880Z,26.94
2016-06-06T13:36:12.868Z,26.81
2016-06-06T13:37:12.886Z,26.82
2016-06-06T13:38:12.888Z,26.69
2016-06-06T13:39:12.907Z,26.71
2016-06-06T13:40:12.769Z,26.68
2016-06-06T13:41:12.928Z,26.61
2016-06-06T13:42:12.946Z,26.69
2016-06-06T13:43:12.964Z,26.78
2016-06-06T13:44:12.983Z,26.74
2016-06-06T13:45:12.846Z,26.71
2016-06-06T13:46:12.973Z,26.72
2016-06-06T13:47:12.975Z,26.86
2016-06-06T13:48:12.994Z,26.91
2016-06-06T13:49:12.996Z,26.97
2016-06-06T13:50:13.014Z,26.96
2016-06-06T13:51:13.033Z,26.94
2016-06-06T13:52:13.067Z,26.97
2016-06-06T13:53:13.070Z,26.97
2016-06-06T13:54:13.056Z,26.91
2016-06-06T13:55:13.075Z,26.99
2016-06-06T13:56:13.094Z,27
2016-06-06T13:57:12.939Z,26.97
2016-06-06T13:58:13.099Z,26.89
2016-06-06T13:59:13.476Z,26.86
2016-06-06T14:00:12.994Z,26.84
2016-06-06T14:01:13.200Z,26.9
2016-06-06T14:02:13.156Z,26.97
2016-06-06T14:03:13.159Z,26.93
2016-06-06T14:04:13.161Z,26.96
2016-06-06T14:05:13.180Z,26.96
2016-06-06T14:06:13.183Z,26.97
2016-06-06T14:07:13.186Z,26.84
2016-06-06T14:08:13.219Z,26.91
2016-06-06T14:09:13.082Z,26.89
2016-06-06T14:10:13.224Z,26.9
2016-06-06T14:11:13.243Z,26.89
2016-06-06T14:12:13.105Z,26.9
2016-06-06T14:13:13.265Z,26.87
2016-06-06T14:14:13.282Z,26.91
2016-06-06T14:15:14.051Z,26.97
2016-06-06T14:16:13.288Z,26.97
2016-06-06T14:17:13.307Z,26.94
2016-06-06T14:18:13.324Z,26.91
2016-06-06T14:19:13.186Z,26.75
2016-06-06T14:20:13.345Z,26.6
2016-06-06T14:21:13.364Z,26.71
2016-06-06T14:22:13.366Z,26.64
2016-06-06T14:23:13.228Z,26.72
2016-06-06T14:24:13.372Z,26.71
2016-06-06T14:25:13.390Z,26.69
2016-06-06T14:26:13.409Z,26.86
2016-06-06T14:27:13.411Z,26.9
2016-06-06T14:28:13.272Z,26.9
2016-06-06T14:29:14.229Z,26.96
2016-06-06T14:30:14.060Z,26.91
2016-06-06T14:31:13.468Z,26.81
2016-06-06T14:32:13.472Z,26.78
2016-06-06T14:33:13.489Z,26.75
2016-06-06T14:34:13.492Z,26.78
2016-06-06T14:35:13.494Z,26.84
2016-06-06T14:36:13.513Z,26.82
2016-06-06T14:37:13.547Z,26.82
2016-06-06T14:38:13.519Z,26.79
2016-06-06T14:39:13.537Z,26.76
2016-06-06T14:40:13.541Z,26.69
2016-06-06T14:41:13.574Z,26.75
2016-06-06T14:42:13.576Z,26.82
2016-06-06T14:43:13.579Z,26.94
2016-06-06T14:44:14.129Z,26.87
2016-06-06T14:45:13.913Z,26.91
2016-06-06T14:46:13.618Z,26.82
2016-06-06T14:47:13.637Z,26.76
2016-06-06T14:48:13.639Z,26.81
2016-06-06T14:49:13.643Z,26.81
2016-06-06T14:50:13.660Z,26.87
2016-06-06T14:51:13.662Z,26.75
2016-06-06T14:52:13.681Z,26.82
2016-06-06T14:53:13.700Z,26.84
2016-06-06T14:54:13.702Z,26.87
2016-06-06T14:55:13.705Z,26.84
2016-06-06T14:56:13.723Z,26.81
2016-06-06T14:57:13.726Z,26.84
2016-06-06T14:58:13.744Z,26.76
2016-06-06T14:59:13.764Z,26.82
2016-06-06T15:00:14.094Z,26.9
2016-06-06T15:01:13.784Z,26.86
2016-06-06T15:02:13.786Z,26.89
2016-06-06T15:03:13.649Z,26.97
2016-06-06T15:04:13.808Z,26.86
2016-06-06T15:05:13.825Z,26.9
2016-06-06T15:06:13.844Z,26.96
2016-06-06T15:07:13.831Z,26.94
2016-06-06T15:08:13.693Z,26.93
2016-06-06T15:09:13.869Z,26.94
2016-06-06T15:10:13.871Z,26.91
2016-06-06T15:11:13.732Z,26.91
2016-06-06T15:12:13.735Z,26.82
2016-06-06T15:13:13.910Z,26.78
2016-06-06T15:14:13.771Z,26.78
2016-06-06T15:15:14.071Z,26.71
2016-06-06T15:16:13.793Z,26.74
2016-06-06T15:17:13.951Z,26.75
2016-06-06T15:18:13.970Z,26.86
2016-06-06T15:19:13.973Z,26.87
2016-06-06T15:20:13.976Z,26.74
2016-06-06T15:21:14.010Z,26.89
2016-06-06T15:22:14.012Z,26.84
2016-06-06T15:23:14.015Z,26.86
2016-06-06T15:24:14.018Z,26.87
2016-06-06T15:25:14.037Z,26.78
2016-06-06T15:26:13.898Z,26.81
2016-06-06T15:27:14.056Z,26.81
2016-06-06T15:28:14.091Z,26.82
2016-06-06T15:29:29.284Z,26.9
2016-06-06T15:30:14.097Z,27
2016-06-06T15:31:14.100Z,26.93
2016-06-06T15:32:14.133Z,26.94
2016-06-06T15:33:14.151Z,26.91
2016-06-06T15:34:14.153Z,26.89
2016-06-06T15:35:14.157Z,26.82
2016-06-06T15:36:14.159Z,26.86
2016-06-06T15:37:14.162Z,26.82
2016-06-06T15:38:14.180Z,26.76
2016-06-06T15:39:14.183Z,26.78
2016-06-06T15:40:14.202Z,26.72
2016-06-06T15:41:14.204Z,26.71
2016-06-06T15:42:14.222Z,26.71
2016-06-06T15:43:14.240Z,26.71
2016-06-06T15:44:14.243Z,26.67
2016-06-06T15:45:15.230Z,26.64
2016-06-06T15:46:14.265Z,26.72
2016-06-06T15:47:14.268Z,26.71
2016-06-06T15:48:14.285Z,26.75
2016-06-06T15:49:14.304Z,26.69
2016-06-06T15:50:14.322Z,26.87
2016-06-06T15:51:14.325Z,26.74
2016-06-06T15:52:14.171Z,26.79
2016-06-06T15:53:14.330Z,26.72
2016-06-06T15:54:14.348Z,26.63
2016-06-06T15:55:14.351Z,26.67
2016-06-06T15:56:14.370Z,26.67
2016-06-06T15:57:14.231Z,26.68
2016-06-06T15:58:14.406Z,26.6
2016-06-06T15:59:14.409Z,26.61
2016-06-06T16:00:14.506Z,26.56
2016-06-06T16:01:14.430Z,26.56
2016-06-06T16:02:14.448Z,26.6
2016-06-06T16:03:14.451Z,26.56
2016-06-06T16:04:14.469Z,26.63
2016-06-06T16:05:14.316Z,26.6
2016-06-06T16:06:14.490Z,26.59
2016-06-06T16:07:14.492Z,26.68
2016-06-06T16:08:14.527Z,26.64
2016-06-06T16:09:14.514Z,26.64
2016-06-06T16:10:14.533Z,26.59
2016-06-06T16:11:14.550Z,26.61
2016-06-06T16:12:14.538Z,26.54
2016-06-06T16:13:14.556Z,26.57
2016-06-06T16:14:14.575Z,26.64
2016-06-06T16:15:14.577Z,26.72
2016-06-06T16:16:14.596Z,26.59
2016-06-06T16:17:14.598Z,26.52
2016-06-06T16:18:14.616Z,26.5
2016-06-06T16:19:14.619Z,26.42
2016-06-06T16:20:14.638Z,26.44
2016-06-06T16:21:14.640Z,26.47
2016-06-06T16:22:14.658Z,26.42
2016-06-06T16:23:14.365Z,26.41
2016-06-06T16:24:14.679Z,26.42
2016-06-06T16:25:14.682Z,26.35
2016-06-06T16:26:14.701Z,26.39
2016-06-06T16:27:14.703Z,26.37
2016-06-06T16:28:14.721Z,26.45
2016-06-06T16:29:14.724Z,26.38
2016-06-06T16:30:14.883Z,26.49
2016-06-06T16:31:14.745Z,26.5
2016-06-06T16:32:14.764Z,26.41
2016-06-06T16:33:14.781Z,26.44
2016-06-06T16:34:14.784Z,26.35
2016-06-06T16:35:14.787Z,26.34
2016-06-06T16:36:14.790Z,26.24
2016-06-06T16:37:14.808Z,26.34
2016-06-06T16:38:14.826Z,26.26
2016-06-06T16:39:14.829Z,26.26
2016-06-06T16:40:14.847Z,26.27
2016-06-06T16:41:14.850Z,26.31
2016-06-06T16:42:14.712Z,26.38
2016-06-06T16:43:14.719Z,26.34
2016-06-06T16:44:14.743Z,26.41
2016-06-06T16:45:14.781Z,26.35
2016-06-06T16:46:14.930Z,26.35
2016-06-06T16:47:14.938Z,26.3
2016-06-06T16:48:14.959Z,26.38
2016-06-06T16:49:14.978Z,26.34
2016-06-06T16:50:14.981Z,26.38
2016-06-06T16:51:14.986Z,26.32
2016-06-06T16:52:15.021Z,26.37
2016-06-06T16:53:15.010Z,26.35
2016-06-06T16:54:15.028Z,26.37
2016-06-06T16:55:15.032Z,26.44
2016-06-06T16:56:15.051Z,26.38
2016-06-06T16:57:15.055Z,26.39
2016-06-06T16:58:15.074Z,26.34
2016-06-06T16:59:15.076Z,26.26
2016-06-06T17:00:14.970Z,26.27
2016-06-06T17:01:15.098Z,26.23
2016-06-06T17:02:15.117Z,26.22
2016-06-06T17:03:15.136Z,26.24
2016-06-06T17:04:15.138Z,26.16
2016-06-06T17:05:15.141Z,26.24
2016-06-06T17:06:15.158Z,26.27
2016-06-06T17:07:15.178Z,26.2
2016-06-06T17:08:15.180Z,26.2
2016-06-06T17:09:15.183Z,26.16
2016-06-06T17:10:15.201Z,26.22
2016-06-06T17:11:15.235Z,26.24
2016-06-06T17:12:15.222Z,26.26
2016-06-06T17:13:15.225Z,26.26
2016-06-06T17:14:15.243Z,26.34
2016-06-06T17:15:15.574Z,26.44
2016-06-06T17:16:15.264Z,26.38
2016-06-06T17:17:15.282Z,26.42
2016-06-06T17:18:15.285Z,26.45
2016-06-06T17:19:15.304Z,26.45
2016-06-06T17:20:15.321Z,26.39
2016-06-06T17:21:15.324Z,26.45
2016-06-06T17:22:15.327Z,26.54
2016-06-06T17:23:15.346Z,26.59
2016-06-06T17:24:15.348Z,26.59
2016-06-06T17:25:15.382Z,26.54
2016-06-06T17:26:15.368Z,26.59
2016-06-06T17:27:15.387Z,26.59
2016-06-06T17:28:15.390Z,26.6
2016-06-06T17:29:15.408Z,26.54
2016-06-06T17:30:15.537Z,26.59
2016-06-06T17:31:15.429Z,26.57
2016-06-06T17:32:15.447Z,26.61
2016-06-06T17:33:15.451Z,26.6
2016-06-06T17:34:15.469Z,26.56
2016-06-06T17:35:15.486Z,26.64
2016-06-06T17:36:15.489Z,26.54
2016-06-06T17:37:15.508Z,26.6
2016-06-06T17:38:15.510Z,26.54
2016-06-06T17:39:15.529Z,26.57
2016-06-06T17:40:15.547Z,26.61
2016-06-06T17:41:15.393Z,26.61
2016-06-06T17:42:15.569Z,26.56
2016-06-06T17:43:15.571Z,26.6
2016-06-06T17:44:15.589Z,26.6
2016-06-06T17:45:15.732Z,26.6
2016-06-06T17:46:15.595Z,26.56
2016-06-06T17:47:15.613Z,26.59
2016-06-06T17:48:15.631Z,26.59
2016-06-06T17:49:15.635Z,26.6
2016-06-06T17:50:15.652Z,26.61
2016-06-06T17:51:15.670Z,26.57
2016-06-06T17:52:15.673Z,26.54
2016-06-06T17:53:15.691Z,26.56
2016-06-06T17:54:15.694Z,26.63
2016-06-06T17:55:15.712Z,26.56
2016-06-06T17:56:15.715Z,26.54
2016-06-06T17:57:15.734Z,26.56
2016-06-06T17:58:15.751Z,26.52
2016-06-06T17:59:15.754Z,26.52
2016-06-06T18:00:15.617Z,26.5
2016-06-06T18:01:15.620Z,26.49
2016-06-06T18:02:15.794Z,26.56
2016-06-06T18:03:15.797Z,26.57
2016-06-06T18:04:15.815Z,26.53
2016-06-06T18:05:15.817Z,26.53
2016-06-06T18:06:15.836Z,26.53
2016-06-06T18:07:15.870Z,26.52
2016-06-06T18:08:15.872Z,26.52
2016-06-06T18:09:15.875Z,26.54
2016-06-06T18:10:15.862Z,26.54
2016-06-06T18:11:15.896Z,26.49
2016-06-06T18:12:15.914Z,26.52
2016-06-06T18:13:15.917Z,26.52
2016-06-06T18:14:15.920Z,26.49
2016-06-06T18:15:15.797Z,26.49
2016-06-06T18:16:15.957Z,26.47
2016-06-06T18:17:15.960Z,26.52
2016-06-06T18:18:15.993Z,26.5
2016-06-06T18:19:15.996Z,26.54
2016-06-06T18:20:15.999Z,26.54
2016-06-06T18:21:16.017Z,26.5
2016-06-06T18:22:16.019Z,26.5
2016-06-06T18:23:16.038Z,26.54
2016-06-06T18:24:16.040Z,26.52
2016-06-06T18:25:16.044Z,26.44
2016-06-06T18:26:16.061Z,26.53
2016-06-06T18:27:16.064Z,26.49
2016-06-06T18:28:16.082Z,26.5
2016-06-06T18:29:16.101Z,26.52
2016-06-06T18:30:16.181Z,26.5
2016-06-06T18:31:16.138Z,26.5
2016-06-06T18:32:16.125Z,26.39
2016-06-06T18:33:16.142Z,26.49
2016-06-06T18:34:16.161Z,26.49
2016-06-06T18:35:16.164Z,26.45
2016-06-06T18:36:16.182Z,26.45
2016-06-06T18:37:16.200Z,26.42
2016-06-06T18:38:16.203Z,26.5
2016-06-06T18:39:16.050Z,26.41
2016-06-06T18:40:16.224Z,26.38
2016-06-06T18:41:16.242Z,26.39
2016-06-06T18:42:16.261Z,26.39
2016-06-06T18:43:16.263Z,26.45
2016-06-06T18:44:16.283Z,26.37
2016-06-06T18:45:16.894Z,26.45
2016-06-06T18:46:16.303Z,26.42
2016-06-06T18:47:16.305Z,26.44
2016-06-06T18:48:16.339Z,26.42
2016-06-06T18:49:16.327Z,26.44
2016-06-06T18:50:16.329Z,26.49
2016-06-06T18:51:16.347Z,26.44
2016-06-06T18:52:16.366Z,26.37
2016-06-06T18:53:16.369Z,26.47
2016-06-06T18:54:16.387Z,26.41
2016-06-06T18:55:16.404Z,26.45
2016-06-06T18:56:16.408Z,26.41
2016-06-06T18:57:16.410Z,26.45
2016-06-06T18:58:16.429Z,26.41
2016-06-06T18:59:16.448Z,26.52
2016-06-06T19:00:16.465Z,26.42
2016-06-06T19:01:16.467Z,26.39
2016-06-06T19:02:16.470Z,26.37
2016-06-06T19:03:16.489Z,26.42
2016-06-06T19:04:16.492Z,26.47
2016-06-06T19:05:16.509Z,26.41
2016-06-06T19:06:16.512Z,26.37
2016-06-06T19:07:16.531Z,26.37
2016-06-06T19:08:16.534Z,26.35
2016-06-06T19:09:16.552Z,26.32
2016-06-06T19:10:16.570Z,26.37
2016-06-06T19:11:16.589Z,26.35
2016-06-06T19:12:16.592Z,26.35
2016-06-06T19:13:16.625Z,26.38
2016-06-06T19:14:16.613Z,26.37
2016-06-06T19:15:16.646Z,26.35
2016-06-06T19:16:16.650Z,26.39
2016-06-06T19:17:16.777Z,26.42
2016-06-06T19:18:16.655Z,26.38
2016-06-06T19:19:16.657Z,26.38
2016-06-06T19:20:16.675Z,26.39
2016-06-06T19:21:16.694Z,26.37
2016-06-06T19:22:16.697Z,26.37
2016-06-06T19:23:16.715Z,26.26
2016-06-06T19:24:16.733Z,26.37
2016-06-06T19:25:16.735Z,26.35
2016-06-06T19:26:16.754Z,26.3
2016-06-06T19:27:16.757Z,26.31
2016-06-06T19:28:16.775Z,26.26
2016-06-06T19:29:16.778Z,26.34
2016-06-06T19:30:16.843Z,26.32
2016-06-06T19:31:16.799Z,26.31
2016-06-06T19:32:16.817Z,26.37
2016-06-06T19:33:16.835Z,26.34
2016-06-06T19:34:16.838Z,26.27
2016-06-06T19:35:17.465Z,26.23
2016-06-06T19:36:16.859Z,26.31
2016-06-06T19:37:16.878Z,26.26
2016-06-06T19:38:16.881Z,26.26
2016-06-06T19:39:16.898Z,26.31
2016-06-06T19:40:16.761Z,26.3
2016-06-06T19:41:16.920Z,26.31
2016-06-06T19:42:16.938Z,26.2
2016-06-06T19:43:16.941Z,26.23
2016-06-06T19:44:16.959Z,26.27
2016-06-06T19:45:16.961Z,26.31
2016-06-06T19:46:16.980Z,26.26
2016-06-06T19:47:16.998Z,26.27
2016-06-06T19:48:17.016Z,26.23
2016-06-06T19:49:17.394Z,26.26
2016-06-06T19:50:17.021Z,26.27
2016-06-06T19:51:16.883Z,26.26
2016-06-06T19:52:17.043Z,26.23
2016-06-06T19:53:17.061Z,26.2
2016-06-06T19:54:17.079Z,26.2
2016-06-06T19:55:17.066Z,26.17
2016-06-06T19:56:17.085Z,26.17
2016-06-06T19:57:17.104Z,26.11
2016-06-06T19:58:17.106Z,26.2
2016-06-06T19:59:17.124Z,26.22
2016-06-06T20:00:17.126Z,26.15
2016-06-06T20:01:17.160Z,26.16
2016-06-06T20:02:17.163Z,26.22
2016-06-06T20:03:17.165Z,26.17
2016-06-06T20:04:17.184Z,26.22
2016-06-06T20:05:17.204Z,26.11
2016-06-06T20:06:17.205Z,26.09
2016-06-06T20:07:17.209Z,26.07
2016-06-06T20:08:17.226Z,26.07
2016-06-06T20:09:17.229Z,26.11
2016-06-06T20:10:17.247Z,26.11
2016-06-06T20:11:17.250Z,26.17
2016-06-06T20:12:17.269Z,26.11
2016-06-06T20:13:17.286Z,26.07
2016-06-06T20:14:17.289Z,26.11
2016-06-06T20:15:17.323Z,26.09
2016-06-06T20:16:17.310Z,26.12
2016-06-06T20:17:17.313Z,26.12
2016-06-06T20:18:17.331Z,26.17
2016-06-06T20:19:17.334Z,26.19
2016-06-06T20:20:18.008Z,26.12
2016-06-06T20:21:17.372Z,26.09
2016-06-06T20:22:17.374Z,26.11
2016-06-06T20:23:17.376Z,26.11
2016-06-06T20:24:17.394Z,26.11
2016-06-06T20:25:17.413Z,26.16
2016-06-06T20:26:17.431Z,26.11
2016-06-06T20:27:17.434Z,26.12
2016-06-06T20:28:17.452Z,26.09
2016-06-06T20:29:17.455Z,26.06
2016-06-06T20:30:17.520Z,26.11
2016-06-06T20:31:17.476Z,26.09
2016-06-06T20:32:17.494Z,26.16
2016-06-06T20:33:17.497Z,26.07
2016-06-06T20:34:17.516Z,26.12
2016-06-06T20:35:18.065Z,26.07
2016-06-06T20:36:17.520Z,26.01
2016-06-06T20:37:17.539Z,26.12
2016-06-06T20:38:17.557Z,26.15
2016-06-06T20:39:17.419Z,26.11
2016-06-06T20:40:17.578Z,26.11
2016-06-06T20:41:17.597Z,26.09
2016-06-06T20:42:17.600Z,26.01
2016-06-06T20:43:17.617Z,26.11
2016-06-06T20:44:17.636Z,26.04
2016-06-06T20:45:17.497Z,26.09
2016-06-06T20:46:17.656Z,26.09
2016-06-06T20:47:17.659Z,26.09
2016-06-06T20:48:17.678Z,26.01
2016-06-06T20:49:17.680Z,26.01
2016-06-06T20:50:18.667Z,26.01
2016-06-06T20:51:17.701Z,26.06
2016-06-06T20:52:17.719Z,26.01
2016-06-06T20:53:17.722Z,26
2016-06-06T20:54:17.725Z,25.97
2016-06-06T20:55:17.759Z,25.99
2016-06-06T20:56:17.762Z,25.97
2016-06-06T20:57:17.765Z,26
2016-06-06T20:58:17.783Z,25.97
2016-06-06T20:59:17.785Z,26.01
2016-06-06T21:00:17.804Z,25.96
2016-06-06T21:01:17.807Z,25.94
2016-06-06T21:02:17.825Z,26.01
2016-06-06T21:03:17.844Z,26.07
2016-06-06T21:04:17.845Z,26
2016-06-06T21:05:18.145Z,26
2016-06-06T21:06:17.868Z,25.97
2016-06-06T21:07:17.885Z,25.97
2016-06-06T21:08:17.887Z,26
2016-06-06T21:09:17.906Z,26
2016-06-06T21:10:17.925Z,25.91
2016-06-06T21:11:17.928Z,25.96
2016-06-06T21:12:17.930Z,25.99
2016-06-06T21:13:17.948Z,25.97
2016-06-06T21:14:17.951Z,25.93
2016-06-06T21:15:17.985Z,25.96
2016-06-06T21:16:17.987Z,25.96
2016-06-06T21:17:18.006Z,25.97
2016-06-06T21:18:18.008Z,25.93
2016-06-06T21:19:18.012Z,25.91
2016-06-06T21:20:18.091Z,25.91
2016-06-06T21:21:18.047Z,25.94
2016-06-06T21:22:18.050Z,25.94
2016-06-06T21:23:18.053Z,26
2016-06-06T21:24:17.915Z,26.01
2016-06-06T21:25:18.090Z,25.93
2016-06-06T21:26:18.093Z,25.96
2016-06-06T21:27:18.111Z,25.91
2016-06-06T21:28:18.113Z,25.94
2016-06-06T21:29:18.132Z,25.97
2016-06-06T21:30:18.197Z,25.97
2016-06-06T21:31:18.152Z,25.89
2016-06-06T21:32:18.155Z,26
2016-06-06T21:33:18.189Z,25.94
2016-06-06T21:34:18.192Z,25.96
2016-06-06T21:35:18.351Z,25.94